Time;durP1;ratioP1;P1;durP2;ratioP2;P2;SDS_P1;SDS_P2;PMS_P1;PMS_P2;Temp;Humidity;BMP_temperature;BMP_pressure;BME280_temperature;BME280_humidity;BME280_pressure;Samples;Min_cycle;Max_cycle;Signal;HPM_P1;HPM_P2
2021/11/20 00:01:13;;;;;;;5.63;4.50;;;12.30;99.90;;;;;;4838832;29;20038;-83
2021/11/20 00:03:43;;;;;;;7.25;4.68;;;12.40;99.90;;;;;;4855946;29;20033;-84
2021/11/20 00:06:10;;;;;;;7.32;5.00;;;12.30;99.90;;;;;;4845194;29;20131;-82
2021/11/20 00:08:36;;;;;;;9.40;4.63;;;12.30;99.90;;;;;;4845555;29;20042;-84
2021/11/20 00:11:04;;;;;;;6.60;4.30;;;12.30;99.90;;;;;;4871042;29;20037;-84
2021/11/20 00:13:30;;;;;;;8.15;4.43;;;12.30;99.90;;;;;;4856741;29;20542;-83
2021/11/20 00:15:58;;;;;;;13.05;4.57;;;12.30;99.90;;;;;;4862454;29;20030;-83
2021/11/20 00:18:24;;;;;;;;;;;12.30;99.90;;;;;;4845717;29;20093;-84
2021/11/20 00:20:55;;;;;;;6.03;4.20;;;12.30;99.90;;;;;;4861969;29;20010;-82
2021/11/20 00:23:32;;;;;;;7.70;4.47;;;12.30;99.90;;;;;;4846077;29;20026;-83
2021/11/20 00:26:00;;;;;;;10.85;5.40;;;12.20;99.90;;;;;;4842735;29;20069;-83
2021/11/20 00:28:41;;;;;;;8.55;4.97;;;12.20;99.90;;;;;;4862131;29;20474;-84
2021/11/20 00:31:14;;;;;;;7.30;4.55;;;12.20;99.90;;;;;;4844834;29;20041;-83
2021/11/20 00:33:41;;;;;;;9.15;5.28;;;12.20;99.90;;;;;;4843867;29;20018;-84
2021/11/20 00:36:08;;;;;;;16.10;5.18;;;12.20;99.90;;;;;;4862192;29;20044;-84
2021/11/20 00:38:35;;;;;;;9.43;4.70;;;12.20;99.90;;;;;;4844811;29;20045;-84
2021/11/20 00:41:08;;;;;;;10.82;5.18;;;12.20;99.90;;;;;;4842544;29;20048;-84
2021/11/20 00:43:35;;;;;;;9.45;4.85;;;12.20;99.90;;;;;;4861592;29;20082;-83
2021/11/20 00:46:02;;;;;;;10.45;5.75;;;12.20;99.90;;;;;;4845537;29;20510;-84
2021/11/20 00:48:27;;;;;;;7.95;5.40;;;12.10;99.90;;;;;;4845135;29;20034;-84
2021/11/20 00:50:58;;;;;;;7.10;5.45;;;12.10;99.90;;;;;;4844891;29;20097;-83
2021/11/20 00:53:24;;;;;;;13.75;6.47;;;12.10;99.90;;;;;;4844352;29;20112;-84
2021/11/20 00:55:49;;;;;;;9.38;5.88;;;12.10;99.90;;;;;;4845917;29;20053;-83
2021/11/20 00:58:16;;;;;;;11.02;6.65;;;12.10;99.90;;;;;;4864614;29;20088;-83
2021/11/20 01:00:46;;;;;;;12.85;6.18;;;12.10;99.90;;;;;;4847595;29;20026;-84
2021/11/20 01:03:12;;;;;;;8.63;5.85;;;12.00;99.90;;;;;;4865043;29;20471;-84
2021/11/20 01:05:39;;;;;;;9.27;6.32;;;12.00;99.90;;;;;;4847569;29;20499;-85
2021/11/20 01:08:09;;;;;;;10.38;6.40;;;12.00;99.90;;;;;;4847958;29;20049;-83
2021/11/20 01:10:40;;;;;;;11.80;6.18;;;12.00;99.90;;;;;;4864776;29;20060;-84
2021/11/20 01:13:06;;;;;;;12.88;7.22;;;12.00;99.90;;;;;;4864476;29;20104;-83
2021/11/20 01:15:47;;;;;;;14.65;6.38;;;12.00;99.90;;;;;;4863836;29;20044;-83
2021/11/20 01:18:15;;;;;;;14.07;6.70;;;12.00;99.90;;;;;;4853362;29;20085;-84
2021/11/20 01:20:42;;;;;;;8.60;5.00;;;12.00;99.90;;;;;;4845303;29;20420;-84
2021/11/20 01:23:08;;;;;;;10.15;6.82;;;12.00;99.90;;;;;;4862636;29;20044;-83
2021/11/20 01:25:35;;;;;;;9.88;6.93;;;12.00;99.90;;;;;;4862286;29;20021;-87
2021/11/20 01:28:02;;;;;;;13.23;7.18;;;12.00;99.90;;;;;;4858904;29;20040;-79
2021/11/20 01:30:28;;;;;;;11.57;7.90;;;12.00;99.90;;;;;;4861996;29;20061;-84
2021/11/20 01:32:54;;;;;;;11.95;7.55;;;12.00;99.90;;;;;;4865315;29;20046;-84
2021/11/20 01:35:20;;;;;;;12.25;7.30;;;12.00;99.90;;;;;;4846464;29;20097;-82
2021/11/20 01:37:46;;;;;;;13.55;8.20;;;11.90;99.90;;;;;;4845937;29;20124;-80
2021/11/20 01:40:16;;;;;;;13.02;7.43;;;11.90;99.90;;;;;;4851558;29;20064;-84
2021/11/20 01:42:43;;;;;;;18.45;7.93;;;11.90;99.90;;;;;;4857076;29;20106;-82
2021/11/20 01:45:29;;;;;;;17.02;8.77;;;11.90;99.90;;;;;;4883277;29;20104;-83
2021/11/20 01:48:26;;;;;;;18.80;8.77;;;11.90;99.90;;;;;;4870804;29;20040;-89
2021/11/20 01:51:04;;;;;;;18.17;8.82;;;11.90;99.90;;;;;;4848238;29;20045;-85
2021/11/20 01:53:36;;;;;;;15.20;9.23;;;11.90;99.90;;;;;;4861415;29;20021;-83
2021/11/20 01:56:33;;;;;;;15.23;8.23;;;11.90;99.90;;;;;;4840990;29;21009;-78
2021/11/20 01:59:37;;;;;;;17.23;9.68;;;11.90;99.90;;;;;;4863332;29;20041;-84
2021/11/20 02:02:24;;;;;;;15.93;9.60;;;11.90;99.90;;;;;;4845749;29;20034;-85
2021/11/20 02:05:01;;;;;;;16.70;9.63;;;11.90;99.90;;;;;;4864220;29;20518;-86
2021/11/20 02:07:46;;;;;;;18.52;9.38;;;11.90;99.90;;;;;;4863925;29;20040;-82
2021/11/20 02:10:14;;;;;;;15.90;9.85;;;11.90;99.90;;;;;;4846332;29;20415;-83
2021/11/20 02:13:12;;;;;;;16.20;9.65;;;11.90;99.90;;;;;;4846110;29;20051;-80
2021/11/20 02:16:00;;;;;;;20.05;10.82;;;11.90;99.90;;;;;;4850444;29;20057;-86
2021/11/20 02:18:29;;;;;;;19.70;9.55;;;11.90;99.90;;;;;;4863044;29;20086;-81
2021/11/20 02:21:06;;;;;;;19.52;10.77;;;12.00;99.90;;;;;;4863299;29;20029;-85
2021/11/20 02:23:32;;;;;;;19.37;11.03;;;12.00;99.90;;;;;;4846038;29;20185;-79
2021/11/20 02:25:59;;;;;;;19.80;10.13;;;12.00;99.90;;;;;;4844215;29;20322;-81
2021/11/20 02:28:25;;;;;;;16.50;9.88;;;12.00;99.90;;;;;;4860057;29;20045;-81
2021/11/20 02:30:51;;;;;;;22.27;10.88;;;12.00;99.90;;;;;;4846927;29;20044;-82
2021/11/20 02:33:16;;;;;;;22.98;10.55;;;12.00;99.90;;;;;;4846123;29;20041;-79
2021/11/20 02:35:46;;;;;;;20.85;10.65;;;12.00;99.90;;;;;;4862085;29;20507;-84
2021/11/20 02:38:37;;;;;;;22.85;10.18;;;12.00;99.90;;;;;;4862407;29;20065;-81
2021/11/20 02:41:03;;;;;;;17.50;9.90;;;12.00;99.90;;;;;;4858577;29;20033;-82
2021/11/20 02:43:34;;;;;;;19.60;10.85;;;12.00;99.90;;;;;;4862128;29;20041;-85
2021/11/20 02:46:00;;;;;;;20.80;9.77;;;11.90;99.90;;;;;;4864061;29;20029;-84
2021/11/20 02:48:26;;;;;;;24.13;10.90;;;12.00;99.90;;;;;;4860867;29;20554;-83
2021/11/20 02:50:57;;;;;;;21.50;9.88;;;12.00;99.90;;;;;;4861240;29;20029;-80
2021/11/20 02:53:45;;;;;;;18.98;10.63;;;12.00;99.90;;;;;;4861435;29;20044;-84
2021/11/20 02:56:15;;;;;;;17.70;10.60;;;12.00;99.90;;;;;;4861998;29;20115;-79
2021/11/20 02:58:41;;;;;;;20.10;10.38;;;12.00;99.90;;;;;;4840014;29;20053;-77
2021/11/20 03:01:12;;;;;;;20.20;10.73;;;12.00;99.90;;;;;;4843034;29;20411;-82
2021/11/20 03:03:38;;;;;;;21.90;11.02;;;11.90;99.90;;;;;;4857561;29;20403;-80
2021/11/20 03:06:03;;;;;;;23.80;10.95;;;11.90;99.90;;;;;;4860981;29;20030;-78
2021/11/20 03:08:29;;;;;;;21.40;10.93;;;11.90;99.90;;;;;;4859535;29;20029;-79
2021/11/20 03:10:55;;;;;;;18.73;10.70;;;11.90;99.90;;;;;;4845195;29;20049;-80
2021/11/20 03:13:21;;;;;;;16.38;9.73;;;11.90;99.90;;;;;;4844143;29;20038;-80
2021/11/20 03:15:47;;;;;;;18.20;10.55;;;11.90;99.90;;;;;;4847246;29;20115;-80
2021/11/20 03:18:13;;;;;;;22.13;10.93;;;11.90;99.90;;;;;;4845131;29;20046;-83
2021/11/20 03:20:41;;;;;;;22.73;11.85;;;11.90;99.90;;;;;;4845524;29;20541;-80
2021/11/20 03:23:26;;;;;;;;;;;11.90;99.90;;;;;;4863111;29;20025;-77
2021/11/20 03:25:52;;;;;;;17.58;10.40;;;11.90;99.90;;;;;;4864442;29;20312;-79
2021/11/20 03:28:18;;;;;;;21.33;11.13;;;11.90;99.90;;;;;;4861505;29;20030;-79
2021/11/20 03:30:45;;;;;;;21.60;11.50;;;11.80;99.90;;;;;;4857330;29;20424;-80
2021/11/20 03:33:12;;;;;;;21.17;11.32;;;11.80;99.90;;;;;;4844109;29;20041;-80
2021/11/20 03:35:37;;;;;;;21.50;10.60;;;11.80;99.90;;;;;;4861593;29;20033;-81
2021/11/20 03:38:05;;;;;;;21.55;10.70;;;11.80;99.90;;;;;;4861696;29;20033;-79
2021/11/20 03:40:30;;;;;;;23.27;11.43;;;11.80;99.90;;;;;;4845344;29;20121;-78
2021/11/20 03:42:56;;;;;;;21.55;10.65;;;11.80;99.90;;;;;;4861147;29;20104;-81
2021/11/20 03:45:24;;;;;;;18.77;10.00;;;11.80;99.90;;;;;;4859856;29;20040;-81
2021/11/20 03:47:50;;;;;;;19.15;11.15;;;11.80;99.90;;;;;;4855176;29;20040;-80
2021/11/20 03:50:16;;;;;;;19.88;10.45;;;11.80;99.90;;;;;;4844656;29;20512;-80
2021/11/20 03:52:44;;;;;;;20.13;10.63;;;11.80;99.90;;;;;;4844678;29;20064;-80
2021/11/20 03:55:12;;;;;;;;;;;11.80;99.90;;;;;;4844742;29;20116;-81
2021/11/20 03:57:38;;;;;;;20.55;10.13;;;11.80;99.90;;;;;;4860861;29;19916;-80
2021/11/20 04:00:06;;;;;;;20.08;10.73;;;11.80;99.90;;;;;;4843622;29;20090;-79
2021/11/20 04:02:32;;;;;;;;;;;11.80;99.90;;;;;;4861020;29;20546;-81
2021/11/20 04:04:57;;;;;;;21.50;10.43;;;11.80;99.90;;;;;;4844573;29;19912;-81
2021/11/20 04:07:23;;;;;;;20.75;11.10;;;11.80;99.90;;;;;;4861077;29;20399;-80
2021/11/20 04:09:49;;;;;;;22.50;11.80;;;11.80;99.90;;;;;;4860831;29;20070;-81
2021/11/20 04:12:14;;;;;;;21.50;10.93;;;11.80;99.90;;;;;;4860969;29;20527;-81
2021/11/20 04:14:40;;;;;;;26.52;10.98;;;11.80;99.90;;;;;;4844390;29;20034;-81
2021/11/20 04:17:06;;;;;;;26.83;11.63;;;11.80;99.90;;;;;;4845182;29;20082;-81
2021/11/20 04:19:32;;;;;;;18.90;10.88;;;11.80;99.90;;;;;;4861323;29;20034;-81
2021/11/20 04:21:58;;;;;;;22.38;11.15;;;11.80;99.90;;;;;;4845236;29;20053;-80
2021/11/20 04:24:23;;;;;;;19.65;10.55;;;11.80;99.90;;;;;;4860975;29;20068;-79
2021/11/20 04:26:50;;;;;;;21.27;11.25;;;11.80;99.90;;;;;;4845564;29;20045;-81
2021/11/20 04:29:16;;;;;;;22.38;10.82;;;11.80;99.90;;;;;;4844476;29;20132;-81
2021/11/20 04:31:42;;;;;;;20.92;10.70;;;11.80;99.90;;;;;;4862128;29;20040;-81
2021/11/20 04:34:08;;;;;;;20.50;10.82;;;11.80;99.90;;;;;;4862715;29;20524;-80
2021/11/20 04:36:34;;;;;;;25.20;11.40;;;11.80;99.90;;;;;;4847620;29;20041;-80
2021/11/20 04:39:00;;;;;;;19.52;10.75;;;11.80;99.90;;;;;;4864946;29;20089;-81
2021/11/20 04:41:26;;;;;;;24.40;11.55;;;11.80;99.90;;;;;;4847720;29;20034;-80
2021/11/20 04:43:52;;;;;;;19.38;10.82;;;11.80;99.90;;;;;;4847750;29;20048;-81
2021/11/20 04:46:21;;;;;;;21.08;10.93;;;11.80;99.90;;;;;;4847995;29;20109;-80
2021/11/20 04:48:47;;;;;;;22.98;11.10;;;11.80;99.90;;;;;;4864160;29;20514;-81
2021/11/20 04:51:14;;;;;;;25.15;11.48;;;11.80;99.90;;;;;;4847927;29;20038;-80
2021/11/20 04:53:41;;;;;;;20.57;11.10;;;11.80;99.90;;;;;;4847616;29;20033;-80
2021/11/20 04:56:09;;;;;;;22.73;11.52;;;11.80;99.90;;;;;;4866366;29;20112;-80
2021/11/20 04:58:35;;;;;;;21.80;11.73;;;11.80;99.90;;;;;;4869578;29;20517;-81
2021/11/20 05:01:03;;;;;;;18.30;10.80;;;11.80;99.90;;;;;;4862687;29;20025;-80
2021/11/20 05:03:29;;;;;;;22.25;11.80;;;11.80;99.90;;;;;;4875248;29;20044;-80
2021/11/20 05:05:56;;;;;;;18.67;10.30;;;11.80;99.90;;;;;;4847369;29;20033;-80
2021/11/20 05:08:23;;;;;;;20.60;11.60;;;11.80;99.90;;;;;;4863740;29;20029;-80
2021/11/20 05:10:51;;;;;;;17.58;10.70;;;11.80;99.90;;;;;;4847526;29;20791;-80
2021/11/20 05:13:18;;;;;;;21.63;10.35;;;11.80;99.90;;;;;;4849525;29;20071;-81
2021/11/20 05:15:46;;;;;;;18.80;10.60;;;11.80;99.90;;;;;;4847143;29;20034;-80
2021/11/20 05:18:13;;;;;;;;;;;11.80;99.90;;;;;;4864437;29;20352;-81
2021/11/20 05:20:39;;;;;;;20.83;10.73;;;11.80;99.90;;;;;;4863520;29;19912;-80
2021/11/20 05:23:06;;;;;;;21.58;11.18;;;11.80;99.90;;;;;;4847116;29;20053;-79
2021/11/20 05:25:32;;;;;;;23.83;10.75;;;11.80;99.90;;;;;;4863545;29;20029;-80
2021/11/20 05:27:58;;;;;;;27.23;13.07;;;11.80;99.90;;;;;;4846797;29;20197;-81
2021/11/20 05:30:37;;;;;;;20.10;11.93;;;11.80;99.90;;;;;;4866302;29;20061;-80
2021/11/20 05:33:08;;;;;;;19.83;11.40;;;11.80;99.90;;;;;;4852383;29;20033;-80
2021/11/20 05:35:34;;;;;;;24.33;12.52;;;11.80;99.90;;;;;;4846957;29;20112;-80
2021/11/20 05:38:00;;;;;;;25.02;12.43;;;11.80;99.90;;;;;;4863405;29;20038;-80
2021/11/20 05:40:27;;;;;;;20.42;10.95;;;11.80;99.90;;;;;;4863155;29;20025;-80
2021/11/20 05:42:55;;;;;;;22.10;11.65;;;11.80;99.90;;;;;;4845544;29;20033;-79
2021/11/20 05:45:25;;;;;;;20.65;12.10;;;11.80;99.90;;;;;;4873885;29;20089;-80
2021/11/20 05:47:51;;;;;;;21.23;11.73;;;11.80;99.90;;;;;;4861457;29;20029;-80
2021/11/20 05:50:19;;;;;;;19.67;11.70;;;11.80;99.90;;;;;;4865468;29;20112;-79
2021/11/20 05:52:47;;;;;;;24.95;12.73;;;11.80;99.90;;;;;;4862765;29;20044;-80
2021/11/20 05:55:13;;;;;;;21.38;12.82;;;11.80;99.90;;;;;;4863230;29;20044;-79
2021/11/20 05:57:39;;;;;;;23.92;12.93;;;11.90;99.90;;;;;;4846117;29;20038;-79
2021/11/20 06:00:11;;;;;;;25.55;12.98;;;11.90;99.90;;;;;;4849089;29;20049;-80
2021/11/20 06:02:37;;;;;;;23.27;12.18;;;11.80;99.90;;;;;;4862289;29;20051;-79
2021/11/20 06:05:07;;;;;;;22.10;12.25;;;11.80;99.90;;;;;;4846897;29;20024;-77
2021/11/20 06:07:33;;;;;;;21.00;11.88;;;11.80;99.90;;;;;;4862701;29;20406;-79
2021/11/20 06:09:58;;;;;;;22.67;11.65;;;11.70;99.90;;;;;;4846495;29;20025;-80
2021/11/20 06:12:25;;;;;;;27.90;13.52;;;11.70;99.90;;;;;;4845792;29;20029;-80
2021/11/20 06:14:51;;;;;;;25.80;12.85;;;11.70;99.90;;;;;;4846906;29;20030;-80
2021/11/20 06:17:17;;;;;;;29.00;13.45;;;11.70;99.90;;;;;;4863072;29;20171;-82
2021/11/20 06:19:43;;;;;;;30.85;14.52;;;11.70;99.90;;;;;;4846088;29;20511;-80
2021/11/20 06:22:10;;;;;;;22.83;12.88;;;11.60;99.90;;;;;;4862992;29;20054;-80
2021/11/20 06:24:36;;;;;;;24.77;12.47;;;11.60;99.90;;;;;;4863403;29;20487;-81
2021/11/20 06:27:02;;;;;;;28.25;13.15;;;11.60;99.90;;;;;;4862697;29;20061;-82
2021/11/20 06:29:28;;;;;;;30.17;14.10;;;11.60;99.90;;;;;;4862694;29;20029;-80
2021/11/20 06:31:53;;;;;;;27.30;13.65;;;11.60;99.90;;;;;;4863247;29;20045;-80
2021/11/20 06:34:20;;;;;;;28.27;14.25;;;11.60;99.90;;;;;;4864096;29;20043;-80
2021/11/20 06:36:46;;;;;;;27.63;14.88;;;11.60;99.90;;;;;;4846704;29;20048;-80
2021/11/20 06:39:12;;;;;;;29.67;14.93;;;11.60;99.90;;;;;;4846065;29;20066;-81
2021/11/20 06:41:38;;;;;;;28.83;15.10;;;11.50;99.90;;;;;;4862290;29;20025;-79
2021/11/20 06:44:05;;;;;;;30.55;15.35;;;11.50;99.90;;;;;;4862188;29;20062;-81
2021/11/20 06:46:31;;;;;;;27.20;14.40;;;11.50;99.90;;;;;;4862104;29;20503;-79
2021/11/20 06:48:57;;;;;;;28.13;15.52;;;11.50;99.90;;;;;;4845873;29;20048;-81
2021/11/20 06:51:23;;;;;;;28.10;15.73;;;11.50;99.90;;;;;;4861861;29;20045;-80
2021/11/20 06:53:48;;;;;;;31.23;16.60;;;11.60;99.90;;;;;;4861017;29;20033;-80
2021/11/20 06:56:26;;;;;;;27.88;15.27;;;11.50;99.90;;;;;;4845156;29;20057;-80
2021/11/20 07:01:20;;;;;;;32.92;16.17;;;11.60;99.90;;;;;;4861676;29;20034;-80
2021/11/20 07:03:55;;;;;;;31.10;16.98;;;11.50;99.90;;;;;;4861910;29;20112;-80
2021/11/20 07:06:29;;;;;;;34.70;17.13;;;11.50;99.90;;;;;;4844451;29;20117;-80
2021/11/20 07:08:56;;;;;;;33.35;17.77;;;11.50;99.90;;;;;;4844922;29;20055;-81
2021/11/20 07:11:22;;;;;;;26.85;16.65;;;11.50;99.90;;;;;;4844678;29;20109;-79
2021/11/20 07:13:51;;;;;;;24.98;14.57;;;11.50;99.90;;;;;;4860842;29;20037;-80
2021/11/20 07:16:19;;;;;;;29.88;16.15;;;11.50;99.90;;;;;;4844844;29;20569;-80
2021/11/20 07:18:44;;;;;;;33.53;17.15;;;11.50;99.90;;;;;;4861468;29;20044;-81
2021/11/20 07:21:10;;;;;;;30.15;15.38;;;11.50;99.90;;;;;;4844589;29;20026;-80
2021/11/20 07:23:37;;;;;;;30.58;16.15;;;11.50;99.90;;;;;;4860779;29;20025;-81
2021/11/20 07:26:04;;;;;;;30.02;16.95;;;11.50;99.90;;;;;;4845405;29;20030;-79
2021/11/20 07:28:31;;;;;;;27.65;15.98;;;11.50;99.90;;;;;;4856518;29;20037;-80
2021/11/20 07:30:56;;;;;;;30.70;14.75;;;11.50;99.90;;;;;;4861441;29;20033;-81
2021/11/20 07:33:22;;;;;;;32.40;16.85;;;11.50;99.90;;;;;;4861397;29;20043;-81
2021/11/20 07:35:51;;;;;;;31.33;15.82;;;11.50;99.90;;;;;;4851012;29;20077;-80
2021/11/20 07:38:30;;;;;;;29.10;15.00;;;11.50;99.90;;;;;;4844668;29;20443;-81
2021/11/20 07:40:55;;;;;;;28.38;15.00;;;11.50;99.90;;;;;;4844164;29;20494;-80
2021/11/20 07:43:21;;;;;;;27.35;14.82;;;11.50;99.90;;;;;;4861122;29;20061;-80
2021/11/20 07:45:47;;;;;;;27.08;14.88;;;11.50;99.90;;;;;;4844274;29;20045;-80
2021/11/20 07:48:16;;;;;;;27.38;15.20;;;11.50;99.90;;;;;;4861129;29;20044;-80
2021/11/20 07:50:44;;;;;;;30.85;15.73;;;11.50;99.90;;;;;;4861174;29;20108;-81
2021/11/20 07:53:11;;;;;;;28.60;15.18;;;11.50;99.90;;;;;;4861740;29;20033;-80
2021/11/20 07:55:36;;;;;;;27.90;15.13;;;11.50;99.90;;;;;;4844405;29;20061;-80
2021/11/20 07:58:03;;;;;;;32.90;14.95;;;11.50;99.90;;;;;;4844774;29;20060;-80
2021/11/20 08:00:30;;;;;;;28.70;16.17;;;11.50;99.90;;;;;;4847711;29;20470;-80
2021/11/20 08:02:55;;;;;;;32.30;17.10;;;11.50;99.90;;;;;;4844013;29;20042;-81
2021/11/20 08:05:25;;;;;;;32.22;16.33;;;11.50;99.90;;;;;;4862057;29;20104;-81
2021/11/20 08:07:51;;;;;;;29.98;15.60;;;11.50;99.90;;;;;;4866786;29;20037;-81
2021/11/20 08:10:16;;;;;;;30.30;14.80;;;11.50;99.90;;;;;;4861861;29;20042;-81
2021/11/20 08:12:43;;;;;;;29.08;15.25;;;11.50;99.90;;;;;;4849128;29;20026;-80
2021/11/20 08:15:11;;;;;;;31.08;14.75;;;11.60;99.90;;;;;;4865285;29;20494;-81
2021/11/20 08:17:39;;;;;;;31.13;15.30;;;11.60;99.90;;;;;;4864432;29;20041;-80
2021/11/20 08:20:09;;;;;;;;;;;11.60;99.90;;;;;;4865483;29;20359;-80
2021/11/20 08:22:36;;;;;;;30.40;14.38;;;11.60;99.90;;;;;;4848720;29;19908;-79
2021/11/20 08:25:04;;;;;;;29.45;15.02;;;11.60;99.90;;;;;;4849072;29;20029;-81
2021/11/20 08:27:30;;;;;;;34.15;15.98;;;11.60;99.90;;;;;;4848201;29;20041;-80
2021/11/20 08:29:56;;;;;;;29.67;16.27;;;11.60;99.90;;;;;;4847440;29;20432;-81
2021/11/20 08:32:22;;;;;;;29.38;16.30;;;11.60;99.90;;;;;;4864680;29;20431;-82
2021/11/20 08:34:48;;;;;;;28.98;14.90;;;11.60;99.90;;;;;;4848425;29;20045;-80
2021/11/20 08:37:15;;;;;;;26.52;14.55;;;11.60;99.90;;;;;;4847616;29;20806;-81
2021/11/20 08:39:42;;;;;;;28.98;15.60;;;11.60;99.90;;;;;;4848788;29;20120;-80
2021/11/20 08:42:09;;;;;;;27.52;15.13;;;11.60;99.90;;;;;;4847123;29;20049;-80
2021/11/20 08:44:35;;;;;;;29.80;15.57;;;11.60;99.90;;;;;;4865044;29;20040;-78
2021/11/20 08:47:03;;;;;;;27.00;15.13;;;11.60;99.90;;;;;;4864442;29;20033;-79
2021/11/20 08:49:29;;;;;;;29.48;16.52;;;11.70;99.90;;;;;;4847016;29;20026;-79
2021/11/20 08:51:55;;;;;;;30.05;16.67;;;11.70;99.90;;;;;;4854911;29;20379;-82
2021/11/20 08:54:22;;;;;;;33.65;17.05;;;11.70;99.90;;;;;;4862259;29;20049;-81
2021/11/20 08:56:48;;;;;;;30.63;15.55;;;11.70;99.90;;;;;;4861319;29;20044;-82
2021/11/20 08:59:19;;;;;;;26.30;14.73;;;11.80;99.90;;;;;;4862210;29;20522;-82
2021/11/20 09:01:51;;;;;;;32.03;15.73;;;11.80;99.90;;;;;;4863771;29;20021;-81
2021/11/20 09:04:24;;;;;;;27.70;15.85;;;11.80;99.90;;;;;;4861714;29;20043;-80
2021/11/20 09:06:53;;;;;;;30.35;16.48;;;11.80;99.90;;;;;;4846270;29;20022;-81
2021/11/20 09:09:28;;;;;;;33.30;16.42;;;11.80;99.90;;;;;;4844061;29;20391;-82
2021/11/20 09:12:05;;;;;;;30.58;16.48;;;11.80;99.90;;;;;;4864237;29;20507;-81
2021/11/20 09:14:34;;;;;;;;;;;11.80;99.90;;;;;;4864287;29;20025;-80
2021/11/20 09:17:00;;;;;;;32.97;16.65;;;11.80;99.90;;;;;;4863864;29;19916;-77
2021/11/20 09:19:32;;;;;;;34.83;17.13;;;11.80;99.90;;;;;;4862760;29;20044;-81
2021/11/20 09:22:00;;;;;;;34.50;16.50;;;11.90;99.90;;;;;;4847268;29;20053;-82
2021/11/20 09:24:28;;;;;;;37.60;18.52;;;11.90;99.90;;;;;;4848070;29;20036;-81
2021/11/20 09:26:55;;;;;;;39.28;17.25;;;11.90;99.90;;;;;;4846459;29;20044;-81
2021/11/20 09:29:24;;;;;;;33.40;18.15;;;11.90;99.90;;;;;;4845097;29;20128;-79
2021/11/20 09:31:50;;;;;;;36.85;18.52;;;11.90;99.90;;;;;;4848126;29;20038;-81
2021/11/20 09:34:16;;;;;;;36.50;17.48;;;12.00;99.90;;;;;;4862120;29;20037;-80
2021/11/20 09:36:44;;;;;;;41.38;18.42;;;12.00;99.90;;;;;;4858011;29;20053;-81
2021/11/20 09:39:12;;;;;;;39.92;17.98;;;12.10;99.90;;;;;;4843743;29;20029;-80
2021/11/20 09:41:59;;;;;;;40.00;18.88;;;12.10;99.90;;;;;;4847391;29;20062;-82
2021/11/20 09:44:26;;;;;;;39.53;18.80;;;12.10;99.90;;;;;;4862977;29;20034;-80
2021/11/20 09:47:00;;;;;;;38.95;20.02;;;12.10;99.90;;;;;;4847298;29;20534;-80
2021/11/20 09:49:36;;;;;;;40.97;19.67;;;12.10;99.90;;;;;;4845294;29;20030;-79
2021/11/20 09:52:04;;;;;;;38.78;18.00;;;12.20;99.90;;;;;;4847100;29;20049;-81
2021/11/20 09:54:35;;;;;;;35.92;18.67;;;12.20;99.90;;;;;;4863950;29;20104;-80
2021/11/20 09:57:24;;;;;;;42.15;20.45;;;12.20;99.90;;;;;;4847797;29;20041;-81
2021/11/20 10:00:10;;;;;;;42.10;19.77;;;12.20;99.90;;;;;;4863827;29;20056;-80
2021/11/20 10:02:50;;;;;;;40.40;19.63;;;12.20;99.90;;;;;;4847000;29;20044;-80
2021/11/20 10:05:42;;;;;;;44.30;20.50;;;12.20;99.90;;;;;;4863524;29;20364;-81
2021/11/20 10:08:29;;;;;;;42.45;19.20;;;12.20;99.90;;;;;;4844543;29;20038;-81
2021/11/20 10:11:08;;;;;;;46.08;20.35;;;12.20;99.90;;;;;;4863702;29;20049;-81
2021/11/20 10:13:45;;;;;;;45.05;18.98;;;12.20;99.90;;;;;;4847010;29;20044;-81
2021/11/20 10:16:15;;;;;;;46.83;21.92;;;12.20;99.90;;;;;;4844738;29;20061;-81
2021/11/20 10:18:51;;;;;;;41.65;18.85;;;12.20;99.90;;;;;;4863762;29;20085;-79
2021/11/20 10:21:25;;;;;;;44.15;21.10;;;12.10;99.90;;;;;;4863833;29;20064;-81
2021/11/20 10:24:29;;;;;;;39.30;20.13;;;12.10;99.90;;;;;;4863513;29;20037;-81
2021/11/20 10:27:09;;;;;;;47.60;21.73;;;12.10;99.90;;;;;;4863750;29;20105;-81
2021/11/20 10:30:00;;;;;;;46.35;20.65;;;12.10;99.90;;;;;;4846054;29;20085;-81
2021/11/20 10:32:41;;;;;;;43.45;20.00;;;12.10;99.90;;;;;;4863340;29;20036;-80
2021/11/20 10:35:20;;;;;;;50.03;20.52;;;12.20;99.90;;;;;;4846778;29;20117;-78
2021/11/20 10:38:11;;;;;;;59.00;22.50;;;12.20;99.90;;;;;;4863357;29;20044;-80
2021/11/20 10:41:28;;;;;;;44.60;20.48;;;12.20;99.90;;;;;;4836307;29;20059;-81
2021/11/20 10:43:56;;;;;;;;;;;12.20;99.90;;;;;;4865566;29;20043;-81
2021/11/20 10:46:34;;;;;;;44.05;17.77;;;12.20;99.90;;;;;;4861677;29;19912;-82
2021/11/20 10:49:25;;;;;;;45.40;20.38;;;12.20;99.90;;;;;;4846027;29;20093;-80
2021/11/20 10:52:19;;;;;;;38.78;19.02;;;12.20;99.90;;;;;;4846391;29;20491;-82
2021/11/20 10:55:15;;;;;;;42.25;20.15;;;12.20;99.90;;;;;;4860817;29;20566;-79
2021/11/20 10:58:20;;;;;;;44.03;20.13;;;12.20;99.90;;;;;;4846294;29;20044;-82
2021/11/20 11:01:14;;;;;;;42.38;19.83;;;12.20;99.90;;;;;;4852265;29;20073;-78
2021/11/20 11:04:00;;;;;;;42.47;19.75;;;12.20;99.90;;;;;;4864465;29;20475;-81
2021/11/20 11:06:32;;;;;;;43.45;20.35;;;12.20;99.90;;;;;;4863114;29;20644;-81
2021/11/20 11:09:16;;;;;;;44.10;19.85;;;12.20;99.90;;;;;;4864177;29;20040;-80
2021/11/20 11:11:59;;;;;;;41.90;20.38;;;12.20;99.90;;;;;;4881232;29;20039;-80
2021/11/20 11:14:37;;;;;;;43.13;19.58;;;12.30;99.90;;;;;;4881407;29;20060;-82
2021/11/20 11:17:10;;;;;;;;;;;12.30;99.90;;;;;;4864110;29;20044;-81
2021/11/20 11:19:50;;;;;;;41.63;19.10;;;12.20;99.90;;;;;;4863925;29;20333;-81
2021/11/20 11:22:44;;;;;;;42.95;20.90;;;12.20;99.90;;;;;;4882598;29;20033;-82
2021/11/20 11:25:29;;;;;;;42.33;20.85;;;12.30;99.90;;;;;;4863729;29;20044;-81
2021/11/20 11:28:30;;;;;;;42.90;20.30;;;12.30;99.90;;;;;;4865144;29;20127;-82
2021/11/20 11:31:21;;;;;;;46.65;21.58;;;12.30;99.90;;;;;;4847981;29;20049;-82
2021/11/20 11:33:51;;;;;;;43.17;20.88;;;12.30;99.90;;;;;;4866843;29;20056;-82
2021/11/20 11:36:35;;;;;;;46.15;21.67;;;12.40;99.90;;;;;;4863884;29;20101;-81
2021/11/20 11:39:33;;;;;;;40.92;20.42;;;12.30;99.90;;;;;;4845657;29;20045;-80
2021/11/20 11:42:11;;;;;;;41.38;19.30;;;12.30;99.90;;;;;;4845987;29;20042;-81
2021/11/20 11:45:04;;;;;;;44.13;19.52;;;12.30;99.90;;;;;;4862310;29;20494;-81
2021/11/20 11:47:45;;;;;;;44.80;19.67;;;12.20;99.90;;;;;;4845988;29;20086;-83
2021/11/20 11:50:29;;;;;;;37.97;18.23;;;12.30;99.90;;;;;;4845904;29;20503;-80
2021/11/20 11:53:10;;;;;;;40.13;18.15;;;12.30;99.90;;;;;;4862134;29;20044;-81
2021/11/20 11:55:39;;;;;;;41.38;19.08;;;12.30;99.90;;;;;;4861997;29;20026;-81
2021/11/20 11:58:25;;;;;;;37.72;15.90;;;12.30;99.90;;;;;;4861976;29;20029;-81
2021/11/20 12:01:10;;;;;;;45.03;18.67;;;12.20;99.90;;;;;;4849768;29;20033;-79
2021/11/20 12:03:42;;;;;;;33.60;16.95;;;12.30;99.90;;;;;;4880837;29;20432;-81
2021/11/20 12:06:23;;;;;;;34.97;17.00;;;12.30;99.90;;;;;;4872063;29;20573;-80
2021/11/20 12:08:59;;;;;;;36.17;16.60;;;12.30;99.90;;;;;;4880542;29;20089;-80
2021/11/20 12:11:27;;;;;;;41.58;17.23;;;12.30;99.90;;;;;;4863703;29;20025;-82
2021/11/20 12:14:13;;;;;;;34.92;17.00;;;12.30;99.90;;;;;;4863136;29;20402;-81
2021/11/20 12:16:52;;;;;;;40.63;16.25;;;12.20;99.90;;;;;;4859372;29;20041;-79
2021/11/20 12:19:43;;;;;;;47.80;22.63;;;12.20;99.90;;;;;;4863086;29;20067;-83
2021/11/20 12:22:42;;;;;;;36.15;18.38;;;12.20;99.90;;;;;;4842633;29;20093;-81
2021/11/20 12:25:31;;;;;;;54.00;27.73;;;12.20;99.90;;;;;;4826384;29;20509;-81
2021/11/20 12:28:02;;;;;;;37.92;18.17;;;12.30;99.90;;;;;;4841990;29;20503;-82
2021/11/20 12:31:08;;;;;;;35.72;15.40;;;12.20;99.90;;;;;;4839344;29;20036;-82
2021/11/20 12:33:57;;;;;;;32.97;16.75;;;12.20;99.90;;;;;;4845552;29;20395;-81
2021/11/20 12:37:04;;;;;;;34.35;16.98;;;12.20;99.90;;;;;;4852525;29;20032;-83
2021/11/20 12:40:13;;;;;;;38.22;18.33;;;12.20;99.90;;;;;;4841162;29;20038;-82
2021/11/20 12:43:16;;;;;;;33.67;15.63;;;12.20;99.90;;;;;;4875696;29;20033;-81
2021/11/20 12:45:57;;;;;;;35.00;16.33;;;12.30;99.90;;;;;;4880354;29;20029;-82
2021/11/20 12:49:00;;;;;;;37.17;17.23;;;12.30;99.90;;;;;;4863411;29;20510;-81
2021/11/20 12:51:50;;;;;;;30.13;14.93;;;12.30;99.90;;;;;;4879412;29;20033;-80
2021/11/20 12:54:30;;;;;;;31.15;15.48;;;12.30;99.90;;;;;;4865759;29;20045;-81
2021/11/20 12:57:15;;;;;;;33.95;14.43;;;12.30;99.90;;;;;;4872414;29;20036;-82
2021/11/20 12:59:51;;;;;;;32.20;14.68;;;12.30;99.90;;;;;;4867340;29;20042;-81
2021/11/20 13:02:55;;;;;;;31.55;14.88;;;12.20;99.90;;;;;;4862571;29;20046;-81